Tropical Cyclones
[Index]
Season 2020-2021 Tropical Cyclone SEROJA Track Map
Season 2020-2021 Summaries (Operational Data): [AU] [SIO] [SPAC] [SH]
<<- Previous TC | 2020-2021 Season | Next TC ->>

click for intensity scale information  Lat/long Grid: Show Hide

 Date Labels: Show Hide

Operational Tropical Cyclone Data

Name: SEROJA
Number: 2126

30 Mar 2021 18:00 UTC to 12 Apr 2021 00:00 UTC

    date/time    lat    long     hPa   cat  kts
2021-03-30 18    8.3   123.1    1010         15          
2021-03-31 00    8.6   123.1    1010         15          
2021-03-31 06    8.9   123.1    1010         15          
2021-03-31 12    9.3   123.0    1007         20          
2021-03-31 18    8.3   122.4    1004         20          
2021-04-01 00    8.6   122.2    1002         20          
2021-04-01 06    8.9   122.1    1003         20          
2021-04-01 12    9.3   121.9    1004         20          
2021-04-01 18    9.6   121.8    1004         20          
2021-04-02 00   10.5   121.9    1007         20          
2021-04-02 06   10.4   122.2    1003         20          
2021-04-02 12   11.0   122.3    1002         20          
2021-04-02 18   11.3   122.7    1002         20          
2021-04-03 00   11.3   123.0    1002         20          
2021-04-03 06   11.1   123.2    1001         20          
2021-04-03 12   10.7   123.8     999         25          
2021-04-03 18   10.7   124.0     999         25          
2021-04-04 00   10.5   124.1     999         25          
2021-04-04 06   10.1   123.9     998         25          
2021-04-04 12   10.4   123.2     999         30          
2021-04-04 18   10.5   123.0     993    1    40          
2021-04-05 00   10.8   122.4     992    1    40          
2021-04-05 06   11.0   121.9     990    1    45          
2021-04-05 12   11.1   121.4     994    1    45          
2021-04-05 18   11.3   120.6     994    1    45          
2021-04-06 00   11.4   120.0     991    2    50          
2021-04-06 06   11.6   119.7     994    1    45          
2021-04-06 12   11.9   119.3     985    1    45          
2021-04-06 18   12.5   119.8     995    1    40          
2021-04-07 00   13.3   118.0     997    1    40          
2021-04-07 06   14.2   116.8     996    1    40          
2021-04-07 12   15.1   115.6     997    1    40          
2021-04-07 18   15.8   114.0     996    1    40          
2021-04-08 00   16.3   112.5     992    2    50          
2021-04-08 06   17.1   111.9     987    2    50          
2021-04-08 12   17.5   111.5     991    1    45          
2021-04-08 18   18.4   111.0     991    1    40          
2021-04-09 00   19.0   110.1     991    1    40          
2021-04-09 06   19.6   109.5     984    2    50          
2021-04-09 12   20.0   108.9     982    2    55          
2021-04-09 18   20.3   108.5     982    2    55          
2021-04-10 00   20.6   108.2     983    2    55          
2021-04-10 06   20.9   108.2     981    2    55          
2021-04-10 12   21.6   108.8     978    2    55          
2021-04-10 18   22.7   109.6     978    2    55          
2021-04-11 00   24.2   110.5     979    2    55          
2021-04-11 06   26.1   112.0     972    2    60          
2021-04-11 12   28.3   114.4     972    2    60          
2021-04-11 18   30.5   117.5     978    2    55          
2021-04-12 00   33.3   121.1     985    1    45          
Winds were reported as (or converted to) 10-min average.

Tropical cyclone tracks developed by Michael Bath using operational warnings and advisories and Google Maps.


Document: tropical_cyclone_seroja.htm
Updated: 7 May 2021
[Australian Severe Weather index] [Copyright Notice] [Email Contacts] [Search This Site] [Privacy Policy]


Main Index Home Page Stock Weather Photos Extreme Storms Discussion Storm News and Storm Chasing Reports Tropical Cyclones / Hurricanes / Typhoons Weather Data and Links Wild Fires / Bushfires Weather Observation Techniques Weather Picture Catalogue Tornado Pictures and Reports Stock Video Footage and DVDs for sale